sensor_id;sensor_type;location;lat;lon;timestamp;temperature;humidity
55329;DHT22;41205;44.264;19.884;2023-03-01T00:01:05;153.60;2252.80
55329;DHT22;41205;44.264;19.884;2023-03-01T00:03:31;128.70;2252.80
55329;DHT22;41205;44.264;19.884;2023-03-01T00:05:58;128.80;2252.80
55329;DHT22;41205;44.264;19.884;2023-03-01T00:08:24;128.90;2252.80
55329;DHT22;41205;44.264;19.884;2023-03-01T00:11:00;153.60;2252.80
55329;DHT22;41205;44.264;19.884;2023-03-01T00:13:25;128.90;2252.80
55329;DHT22;41205;44.264;19.884;2023-03-01T00:15:51;153.60;2252.80
55329;DHT22;41205;44.264;19.884;2023-03-01T00:18:17;153.60;2252.80
55329;DHT22;41205;44.264;19.884;2023-03-01T00:20:50;128.90;2252.80
55329;DHT22;41205;44.264;19.884;2023-03-01T00:23:16;128.70;2252.80
55329;DHT22;41205;44.264;19.884;2023-03-01T00:25:43;128.90;2252.80
55329;DHT22;41205;44.264;19.884;2023-03-01T00:28:08;153.60;2252.80
55329;DHT22;41205;44.264;19.884;2023-03-01T00:30:34;153.70;2252.80
55329;DHT22;41205;44.264;19.884;2023-03-01T00:33:00;153.60;2252.80
55329;DHT22;41205;44.264;19.884;2023-03-01T00:35:25;153.70;2252.80
55329;DHT22;41205;44.264;19.884;2023-03-01T00:37:51;153.60;2252.80
55329;DHT22;41205;44.264;19.884;2023-03-01T00:40:24;153.70;2252.80
55329;DHT22;41205;44.264;19.884;2023-03-01T00:42:49;153.80;2252.80
55329;DHT22;41205;44.264;19.884;2023-03-01T00:45:16;153.80;2252.80
55329;DHT22;41205;44.264;19.884;2023-03-01T00:47:42;153.60;2252.80
55329;DHT22;41205;44.264;19.884;2023-03-01T00:50:08;153.80;2252.80
55329;DHT22;41205;44.264;19.884;2023-03-01T00:52:34;153.70;2252.80
55329;DHT22;41205;44.264;19.884;2023-03-01T00:54:59;153.60;2252.80
55329;DHT22;41205;44.264;19.884;2023-03-01T00:57:25;153.70;2252.80
55329;DHT22;41205;44.264;19.884;2023-03-01T00:59:51;153.70;2252.80
55329;DHT22;41205;44.264;19.884;2023-03-01T01:02:20;153.70;2252.80
55329;DHT22;41205;44.264;19.884;2023-03-01T01:04:47;153.70;2252.80
55329;DHT22;41205;44.264;19.884;2023-03-01T01:07:13;128.80;2252.80
55329;DHT22;41205;44.264;19.884;2023-03-01T01:09:39;128.70;2252.80
55329;DHT22;41205;44.264;19.884;2023-03-01T01:12:05;128.70;2252.80
55329;DHT22;41205;44.264;19.884;2023-03-01T01:14:31;128.70;2252.80
55329;DHT22;41205;44.264;19.884;2023-03-01T01:16:57;128.80;2252.80
55329;DHT22;41205;44.264;19.884;2023-03-01T01:19:24;128.90;2252.80
55329;DHT22;41205;44.264;19.884;2023-03-01T01:21:50;128.90;2252.80
55329;DHT22;41205;44.264;19.884;2023-03-01T01:24:16;128.90;2252.80
55329;DHT22;41205;44.264;19.884;2023-03-01T01:26:43;153.60;2252.80
55329;DHT22;41205;44.264;19.884;2023-03-01T01:29:09;153.60;2252.80
55329;DHT22;41205;44.264;19.884;2023-03-01T01:31:37;153.60;2252.80
55329;DHT22;41205;44.264;19.884;2023-03-01T01:34:05;153.70;2252.80
55329;DHT22;41205;44.264;19.884;2023-03-01T01:36:32;153.60;2252.80
55329;DHT22;41205;44.264;19.884;2023-03-01T01:38:58;153.60;2252.80
55329;DHT22;41205;44.264;19.884;2023-03-01T01:41:26;128.90;2252.80
55329;DHT22;41205;44.264;19.884;2023-03-01T01:44:24;153.60;2252.80
55329;DHT22;41205;44.264;19.884;2023-03-01T01:46:57;153.60;2252.80
55329;DHT22;41205;44.264;19.884;2023-03-01T01:51:53;128.70;2252.80
55329;DHT22;41205;44.264;19.884;2023-03-01T01:54:28;128.90;2252.80
55329;DHT22;41205;44.264;19.884;2023-03-01T01:57:01;128.80;2252.80
55329;DHT22;41205;44.264;19.884;2023-03-01T01:59:31;128.70;2252.80
55329;DHT22;41205;44.264;19.884;2023-03-01T02:01:59;128.80;2252.80
55329;DHT22;41205;44.264;19.884;2023-03-01T02:04:26;128.90;2252.80
55329;DHT22;41205;44.264;19.884;2023-03-01T02:06:58;153.60;2252.80
55329;DHT22;41205;44.264;19.884;2023-03-01T02:09:26;128.90;2252.80
55329;DHT22;41205;44.264;19.884;2023-03-01T02:11:53;128.90;2252.80
55329;DHT22;41205;44.264;19.884;2023-03-01T02:14:19;128.90;2252.80
55329;DHT22;41205;44.264;19.884;2023-03-01T02:16:45;128.90;2252.80
55329;DHT22;41205;44.264;19.884;2023-03-01T02:22:06;128.90;2252.80
55329;DHT22;41205;44.264;19.884;2023-03-01T02:30:36;128.90;2252.80
55329;DHT22;41205;44.264;19.884;2023-03-01T02:33:03;128.90;2252.80
55329;DHT22;41205;44.264;19.884;2023-03-01T02:35:37;128.90;2252.80
55329;DHT22;41205;44.264;19.884;2023-03-01T02:38:06;128.90;2252.80
55329;DHT22;41205;44.264;19.884;2023-03-01T02:40:33;128.80;2252.80
55329;DHT22;41205;44.264;19.884;2023-03-01T02:42:59;128.70;2252.80
55329;DHT22;41205;44.264;19.884;2023-03-01T02:45:27;128.70;2252.80
55329;DHT22;41205;44.264;19.884;2023-03-01T02:47:56;128.70;2252.80
55329;DHT22;41205;44.264;19.884;2023-03-01T02:53:19;128.70;2252.80
55329;DHT22;41205;44.264;19.884;2023-03-01T02:55:47;128.70;2252.80
55329;DHT22;41205;44.264;19.884;2023-03-01T02:58:14;128.70;2252.80
55329;DHT22;41205;44.264;19.884;2023-03-01T03:00:42;128.70;2252.80
55329;DHT22;41205;44.264;19.884;2023-03-01T03:03:21;128.70;2252.80
55329;DHT22;41205;44.264;19.884;2023-03-01T03:05:47;128.80;2252.80
55329;DHT22;41205;44.264;19.884;2023-03-01T03:08:14;128.90;2252.80
55329;DHT22;41205;44.264;19.884;2023-03-01T03:10:44;128.90;2252.80
55329;DHT22;41205;44.264;19.884;2023-03-01T03:13:12;128.80;2252.80
55329;DHT22;41205;44.264;19.884;2023-03-01T03:15:40;128.80;2252.80
55329;DHT22;41205;44.264;19.884;2023-03-01T03:18:12;128.60;2252.80
55329;DHT22;41205;44.264;19.884;2023-03-01T03:20:39;128.70;2252.80
55329;DHT22;41205;44.264;19.884;2023-03-01T03:23:06;128.70;2252.80
55329;DHT22;41205;44.264;19.884;2023-03-01T03:25:31;128.60;2252.80
55329;DHT22;41205;44.264;19.884;2023-03-01T03:27:57;128.50;2252.80
55329;DHT22;41205;44.264;19.884;2023-03-01T03:30:26;128.40;2252.80
55329;DHT22;41205;44.264;19.884;2023-03-01T03:32:52;128.40;2252.80
55329;DHT22;41205;44.264;19.884;2023-03-01T03:35:22;128.50;2252.80
55329;DHT22;41205;44.264;19.884;2023-03-01T03:37:50;128.60;2252.80
55329;DHT22;41205;44.264;19.884;2023-03-01T03:40:38;128.40;2252.80
55329;DHT22;41205;44.264;19.884;2023-03-01T03:43:13;128.40;2252.80
55329;DHT22;41205;44.264;19.884;2023-03-01T03:45:39;128.50;2252.80
55329;DHT22;41205;44.264;19.884;2023-03-01T03:48:07;128.30;2252.80
55329;DHT22;41205;44.264;19.884;2023-03-01T03:50:33;128.40;2252.80
55329;DHT22;41205;44.264;19.884;2023-03-01T03:53:04;128.20;2252.80
55329;DHT22;41205;44.264;19.884;2023-03-01T03:55:30;128.40;2252.80
55329;DHT22;41205;44.264;19.884;2023-03-01T03:58:00;128.40;2252.80
55329;DHT22;41205;44.264;19.884;2023-03-01T04:00:33;128.40;2252.80
55329;DHT22;41205;44.264;19.884;2023-03-01T04:02:59;128.30;2252.80
55329;DHT22;41205;44.264;19.884;2023-03-01T04:05:26;128.40;2252.80
55329;DHT22;41205;44.264;19.884;2023-03-01T04:07:52;128.40;2252.80
55329;DHT22;41205;44.264;19.884;2023-03-01T04:10:30;128.50;2252.80
55329;DHT22;41205;44.264;19.884;2023-03-01T04:12:57;128.60;2252.80
55329;DHT22;41205;44.264;19.884;2023-03-01T04:15:24;128.50;2252.80
55329;DHT22;41205;44.264;19.884;2023-03-01T04:17:51;128.50;2252.80
55329;DHT22;41205;44.264;19.884;2023-03-01T04:20:21;128.60;2252.80
55329;DHT22;41205;44.264;19.884;2023-03-01T04:23:02;128.50;2252.80
55329;DHT22;41205;44.264;19.884;2023-03-01T04:26:02;128.30;2252.80
55329;DHT22;41205;44.264;19.884;2023-03-01T04:30:58;128.30;2252.80
55329;DHT22;41205;44.264;19.884;2023-03-01T04:33:25;128.30;2252.80
55329;DHT22;41205;44.264;19.884;2023-03-01T04:35:51;128.30;2252.80
55329;DHT22;41205;44.264;19.884;2023-03-01T04:38:18;128.40;2252.80
55329;DHT22;41205;44.264;19.884;2023-03-01T04:40:44;128.40;2252.80
55329;DHT22;41205;44.264;19.884;2023-03-01T04:43:11;128.40;2252.80
55329;DHT22;41205;44.264;19.884;2023-03-01T04:45:38;128.40;2252.80
55329;DHT22;41205;44.264;19.884;2023-03-01T04:48:04;128.20;2252.80
55329;DHT22;41205;44.264;19.884;2023-03-01T04:50:30;128.30;2252.80
55329;DHT22;41205;44.264;19.884;2023-03-01T04:52:56;128.40;2252.80
55329;DHT22;41205;44.264;19.884;2023-03-01T04:55:27;128.30;2252.80
55329;DHT22;41205;44.264;19.884;2023-03-01T04:57:53;128.60;2252.80
55329;DHT22;41205;44.264;19.884;2023-03-01T05:00:20;128.40;2252.80
55329;DHT22;41205;44.264;19.884;2023-03-01T05:05:14;128.50;2252.80
55329;DHT22;41205;44.264;19.884;2023-03-01T05:07:40;128.40;2252.80
55329;DHT22;41205;44.264;19.884;2023-03-01T05:10:06;128.40;2252.80
55329;DHT22;41205;44.264;19.884;2023-03-01T05:12:32;128.40;2252.80
55329;DHT22;41205;44.264;19.884;2023-03-01T05:14:58;128.40;2252.80
55329;DHT22;41205;44.264;19.884;2023-03-01T05:17:23;128.40;2252.80
55329;DHT22;41205;44.264;19.884;2023-03-01T05:19:49;128.30;2252.80
55329;DHT22;41205;44.264;19.884;2023-03-01T05:22:15;128.30;2252.80
55329;DHT22;41205;44.264;19.884;2023-03-01T05:24:44;128.40;2252.80
55329;DHT22;41205;44.264;19.884;2023-03-01T05:27:12;128.40;2252.80
55329;DHT22;41205;44.264;19.884;2023-03-01T05:29:37;128.30;2252.80
55329;DHT22;41205;44.264;19.884;2023-03-01T05:32:04;128.40;2252.80
55329;DHT22;41205;44.264;19.884;2023-03-01T05:34:32;128.40;2252.80
55329;DHT22;41205;44.264;19.884;2023-03-01T05:36:58;128.00;2252.80
55329;DHT22;41205;44.264;19.884;2023-03-01T05:39:27;128.00;2252.80
55329;DHT22;41205;44.264;19.884;2023-03-01T05:41:54;128.20;2252.80
55329;DHT22;41205;44.264;19.884;2023-03-01T05:44:21;128.20;2252.80
55329;DHT22;41205;44.264;19.884;2023-03-01T05:46:47;128.30;2252.80
55329;DHT22;41205;44.264;19.884;2023-03-01T05:49:15;128.40;2252.80
55329;DHT22;41205;44.264;19.884;2023-03-01T05:51:42;128.50;2252.80
55329;DHT22;41205;44.264;19.884;2023-03-01T05:54:09;128.50;2252.80
55329;DHT22;41205;44.264;19.884;2023-03-01T05:56:36;128.30;2252.80
55329;DHT22;41205;44.264;19.884;2023-03-01T05:59:03;128.30;2252.80
55329;DHT22;41205;44.264;19.884;2023-03-01T06:01:28;128.40;2252.80
55329;DHT22;41205;44.264;19.884;2023-03-01T06:03:55;128.40;2252.80
55329;DHT22;41205;44.264;19.884;2023-03-01T06:06:21;128.40;2252.80
55329;DHT22;41205;44.264;19.884;2023-03-01T06:08:47;128.40;2252.80
55329;DHT22;41205;44.264;19.884;2023-03-01T06:11:12;128.20;2252.80
55329;DHT22;41205;44.264;19.884;2023-03-01T06:13:38;128.40;2252.80
55329;DHT22;41205;44.264;19.884;2023-03-01T06:16:05;128.20;2252.80
55329;DHT22;41205;44.264;19.884;2023-03-01T06:18:32;128.20;2252.80
55329;DHT22;41205;44.264;19.884;2023-03-01T06:20:57;128.50;2252.80
55329;DHT22;41205;44.264;19.884;2023-03-01T06:23:23;128.70;2252.80
55329;DHT22;41205;44.264;19.884;2023-03-01T06:25:49;128.70;2252.80
55329;DHT22;41205;44.264;19.884;2023-03-01T06:28:15;128.70;2252.80
55329;DHT22;41205;44.264;19.884;2023-03-01T06:30:41;128.60;2252.80
55329;DHT22;41205;44.264;19.884;2023-03-01T06:33:07;128.90;2252.80
55329;DHT22;41205;44.264;19.884;2023-03-01T06:35:33;128.90;2252.80
55329;DHT22;41205;44.264;19.884;2023-03-01T06:38:01;128.90;2252.80
55329;DHT22;41205;44.264;19.884;2023-03-01T06:40:27;153.60;2252.80
55329;DHT22;41205;44.264;19.884;2023-03-01T06:42:53;153.70;2252.80
55329;DHT22;41205;44.264;19.884;2023-03-01T06:45:20;128.90;2252.80
55329;DHT22;41205;44.264;19.884;2023-03-01T06:47:46;128.40;2252.80
55329;DHT22;41205;44.264;19.884;2023-03-01T06:50:12;128.40;2252.80
55329;DHT22;41205;44.264;19.884;2023-03-01T06:52:38;128.50;2252.80
55329;DHT22;41205;44.264;19.884;2023-03-01T06:55:04;128.60;2252.80
55329;DHT22;41205;44.264;19.884;2023-03-01T06:57:30;128.80;2252.80
55329;DHT22;41205;44.264;19.884;2023-03-01T06:59:56;128.80;2252.80
55329;DHT22;41205;44.264;19.884;2023-03-01T07:02:22;128.50;2252.80
55329;DHT22;41205;44.264;19.884;2023-03-01T07:04:51;128.70;2252.80
55329;DHT22;41205;44.264;19.884;2023-03-01T07:07:17;128.80;2252.80
55329;DHT22;41205;44.264;19.884;2023-03-01T07:09:46;128.90;2252.80
55329;DHT22;41205;44.264;19.884;2023-03-01T07:12:13;128.90;2252.80
55329;DHT22;41205;44.264;19.884;2023-03-01T07:14:39;153.60;2252.80
55329;DHT22;41205;44.264;19.884;2023-03-01T07:17:05;153.70;2252.80
55329;DHT22;41205;44.264;19.884;2023-03-01T07:19:30;153.70;2252.80
55329;DHT22;41205;44.264;19.884;2023-03-01T07:21:56;153.80;2252.80
55329;DHT22;41205;44.264;19.884;2023-03-01T07:24:22;128.90;2252.80
55329;DHT22;41205;44.264;19.884;2023-03-01T07:26:49;128.80;2252.80
55329;DHT22;41205;44.264;19.884;2023-03-01T07:29:15;128.90;2252.80
55329;DHT22;41205;44.264;19.884;2023-03-01T07:31:41;128.90;2252.80
55329;DHT22;41205;44.264;19.884;2023-03-01T07:34:07;128.70;2252.80
55329;DHT22;41205;44.264;19.884;2023-03-01T07:36:33;153.70;2252.80
55329;DHT22;41205;44.264;19.884;2023-03-01T07:38:58;153.80;2252.80
55329;DHT22;41205;44.264;19.884;2023-03-01T07:41:25;128.90;2252.80
55329;DHT22;41205;44.264;19.884;2023-03-01T07:43:51;153.80;2252.80
55329;DHT22;41205;44.264;19.884;2023-03-01T07:46:17;153.60;2252.80
55329;DHT22;41205;44.264;19.884;2023-03-01T07:48:44;153.70;2252.80
55329;DHT22;41205;44.264;19.884;2023-03-01T07:51:10;128.90;2252.80
55329;DHT22;41205;44.264;19.884;2023-03-01T07:53:36;153.80;2252.80
55329;DHT22;41205;44.264;19.884;2023-03-01T07:58:31;153.60;2252.80
55329;DHT22;41205;44.264;19.884;2023-03-01T08:01:04;153.70;2252.80
55329;DHT22;41205;44.264;19.884;2023-03-01T08:03:30;153.60;2252.80
55329;DHT22;41205;44.264;19.884;2023-03-01T08:05:58;153.90;2252.80
55329;DHT22;41205;44.264;19.884;2023-03-01T08:08:24;154.00;2252.80
55329;DHT22;41205;44.264;19.884;2023-03-01T08:10:50;153.80;2252.80
55329;DHT22;41205;44.264;19.884;2023-03-01T08:13:15;153.60;2252.80
55329;DHT22;41205;44.264;19.884;2023-03-01T08:15:41;153.70;2252.80
55329;DHT22;41205;44.264;19.884;2023-03-01T08:18:07;128.80;2252.80
55329;DHT22;41205;44.264;19.884;2023-03-01T08:20:32;153.60;2252.80
55329;DHT22;41205;44.264;19.884;2023-03-01T08:22:58;128.80;2252.80
55329;DHT22;41205;44.264;19.884;2023-03-01T08:25:24;128.90;2252.80
55329;DHT22;41205;44.264;19.884;2023-03-01T08:27:49;153.90;2252.80
55329;DHT22;41205;44.264;19.884;2023-03-01T08:30:15;154.00;2252.80
55329;DHT22;41205;44.264;19.884;2023-03-01T08:32:41;153.70;2252.80
55329;DHT22;41205;44.264;19.884;2023-03-01T08:35:07;153.60;2252.80
55329;DHT22;41205;44.264;19.884;2023-03-01T08:37:33;153.80;2252.80
55329;DHT22;41205;44.264;19.884;2023-03-01T08:39:59;154.20;2252.80
55329;DHT22;41205;44.264;19.884;2023-03-01T08:42:26;154.10;2252.80
55329;DHT22;41205;44.264;19.884;2023-03-01T08:44:51;153.90;2252.80
55329;DHT22;41205;44.264;19.884;2023-03-01T08:47:17;128.80;2252.80
55329;DHT22;41205;44.264;19.884;2023-03-01T08:49:43;128.90;2252.80
55329;DHT22;41205;44.264;19.884;2023-03-01T08:52:09;153.60;2252.80
55329;DHT22;41205;44.264;19.884;2023-03-01T08:54:34;153.60;2252.80
55329;DHT22;41205;44.264;19.884;2023-03-01T08:57:03;154.00;2252.80
55329;DHT22;41205;44.264;19.884;2023-03-01T08:59:29;154.00;2252.80
55329;DHT22;41205;44.264;19.884;2023-03-01T09:01:55;153.90;2252.80
55329;DHT22;41205;44.264;19.884;2023-03-01T09:04:21;153.80;2252.80
55329;DHT22;41205;44.264;19.884;2023-03-01T09:06:47;154.00;2252.80
55329;DHT22;41205;44.264;19.884;2023-03-01T09:09:15;154.40;2252.80
55329;DHT22;41205;44.264;19.884;2023-03-01T09:11:42;154.40;2252.80
55329;DHT22;41205;44.264;19.884;2023-03-01T09:14:09;179.20;2252.80
55329;DHT22;41205;44.264;19.884;2023-03-01T09:16:34;179.70;2252.80
55329;DHT22;41205;44.264;19.884;2023-03-01T09:19:03;180.00;2252.80
55329;DHT22;41205;44.264;19.884;2023-03-01T09:21:29;180.10;2252.80
55329;DHT22;41205;44.264;19.884;2023-03-01T09:23:56;204.80;2252.80
55329;DHT22;41205;44.264;19.884;2023-03-01T09:26:23;180.00;2252.80
55329;DHT22;41205;44.264;19.884;2023-03-01T09:28:50;179.80;2252.80
55329;DHT22;41205;44.264;19.884;2023-03-01T09:31:17;179.50;2252.80
55329;DHT22;41205;44.264;19.884;2023-03-01T09:33:46;179.60;2252.80
55329;DHT22;41205;44.264;19.884;2023-03-01T09:36:17;179.50;2252.80
55329;DHT22;41205;44.264;19.884;2023-03-01T09:38:44;179.70;2252.80
55329;DHT22;41205;44.264;19.884;2023-03-01T09:41:31;180.10;2252.80
55329;DHT22;41205;44.264;19.884;2023-03-01T09:46:47;179.70;2252.80
55329;DHT22;41205;44.264;19.884;2023-03-01T09:49:19;179.60;2252.80
55329;DHT22;41205;44.264;19.884;2023-03-01T09:54:47;179.60;2252.80
55329;DHT22;41205;44.264;19.884;2023-03-01T10:00:03;179.80;2252.80
55329;DHT22;41205;44.264;19.884;2023-03-01T10:02:47;179.70;2252.80
55329;DHT22;41205;44.264;19.884;2023-03-01T10:10:47;179.60;2252.80
55329;DHT22;41205;44.264;19.884;2023-03-01T10:13:22;179.60;2252.80
55329;DHT22;41205;44.264;19.884;2023-03-01T10:16:15;179.50;2252.80
55329;DHT22;41205;44.264;19.884;2023-03-01T10:18:40;179.80;2252.80
55329;DHT22;41205;44.264;19.884;2023-03-01T10:21:14;180.10;2252.80
55329;DHT22;41205;44.264;19.884;2023-03-01T10:23:42;180.00;2252.80
55329;DHT22;41205;44.264;19.884;2023-03-01T10:29:09;180.10;2252.80
55329;DHT22;41205;44.264;19.884;2023-03-01T10:31:47;204.80;2252.80
55329;DHT22;41205;44.264;19.884;2023-03-01T10:34:17;180.10;2252.80
55329;DHT22;41205;44.264;19.884;2023-03-01T10:36:44;180.10;2252.80
55329;DHT22;41205;44.264;19.884;2023-03-01T10:39:22;204.90;2252.80
55329;DHT22;41205;44.264;19.884;2023-03-01T10:42:01;179.80;2252.80
55329;DHT22;41205;44.264;19.884;2023-03-01T10:47:23;180.00;2252.80
55329;DHT22;41205;44.264;19.884;2023-03-01T10:50:04;179.80;2252.80
55329;DHT22;41205;44.264;19.884;2023-03-01T10:55:19;179.80;2252.80
55329;DHT22;41205;44.264;19.884;2023-03-01T10:57:49;179.80;2252.80
55329;DHT22;41205;44.264;19.884;2023-03-01T11:00:20;179.50;2252.80
55329;DHT22;41205;44.264;19.884;2023-03-01T11:03:12;179.70;2252.80
55329;DHT22;41205;44.264;19.884;2023-03-01T11:05:37;179.90;2252.80
55329;DHT22;41205;44.264;19.884;2023-03-01T11:08:14;179.90;2252.80
55329;DHT22;41205;44.264;19.884;2023-03-01T11:10:40;179.80;2252.80
55329;DHT22;41205;44.264;19.884;2023-03-01T11:13:17;179.90;2252.80
55329;DHT22;41205;44.264;19.884;2023-03-01T11:16:02;179.80;2252.80
55329;DHT22;41205;44.264;19.884;2023-03-01T11:18:30;180.10;2252.80
55329;DHT22;41205;44.264;19.884;2023-03-01T11:20:56;204.90;2252.80
55329;DHT22;41205;44.264;19.884;2023-03-01T11:23:25;204.90;2252.80
55329;DHT22;41205;44.264;19.884;2023-03-01T11:26:00;205.10;2252.80
55329;DHT22;41205;44.264;19.884;2023-03-01T11:28:28;205.40;2252.80
55329;DHT22;41205;44.264;19.884;2023-03-01T11:33:44;204.90;2252.80
55329;DHT22;41205;44.264;19.884;2023-03-01T11:39:03;205.10;2252.80
55329;DHT22;41205;44.264;19.884;2023-03-01T11:41:30;205.20;2252.80
55329;DHT22;41205;44.264;19.884;2023-03-01T11:44:03;205.30;2252.80
55329;DHT22;41205;44.264;19.884;2023-03-01T11:46:49;205.50;2252.80
55329;DHT22;41205;44.264;19.884;2023-03-01T11:52:46;205.60;2252.80
55329;DHT22;41205;44.264;19.884;2023-03-01T12:00:42;205.70;2252.80
55329;DHT22;41205;44.264;19.884;2023-03-01T12:08:20;230.50;2252.80
55329;DHT22;41205;44.264;19.884;2023-03-01T12:11:07;230.50;2252.80
55329;DHT22;41205;44.264;19.884;2023-03-01T12:18:52;205.60;2252.80
55329;DHT22;41205;44.264;19.884;2023-03-01T12:25:03;205.70;2252.80
55329;DHT22;41205;44.264;19.884;2023-03-01T12:27:06;205.70;2252.80
55329;DHT22;41205;44.264;19.884;2023-03-01T12:29:45;205.60;2252.80
55329;DHT22;41205;44.264;19.884;2023-03-01T12:49:41;205.40;2252.80
55329;DHT22;41205;44.264;19.884;2023-03-01T12:54:51;205.30;2252.80
55329;DHT22;41205;44.264;19.884;2023-03-01T13:03:17;205.10;2252.80
55329;DHT22;41205;44.264;19.884;2023-03-01T13:09:30;205.00;2252.80
55329;DHT22;41205;44.264;19.884;2023-03-01T13:11:58;205.10;2252.80
55329;DHT22;41205;44.264;19.884;2023-03-01T13:14:35;205.20;2252.80
55329;DHT22;41205;44.264;19.884;2023-03-01T13:17:02;205.00;2252.80
55329;DHT22;41205;44.264;19.884;2023-03-01T13:19:29;205.10;2252.80
55329;DHT22;41205;44.264;19.884;2023-03-01T13:21:56;204.90;2252.80
55329;DHT22;41205;44.264;19.884;2023-03-01T13:24:41;204.80;2252.80
55329;DHT22;41205;44.264;19.884;2023-03-01T13:29:49;180.10;2252.80
55329;DHT22;41205;44.264;19.884;2023-03-01T13:32:26;180.00;2252.80
55329;DHT22;41205;44.264;19.884;2023-03-01T13:34:59;179.90;2252.80
55329;DHT22;41205;44.264;19.884;2023-03-01T13:37:28;179.90;2252.80
55329;DHT22;41205;44.264;19.884;2023-03-01T13:39:57;179.80;2252.80
55329;DHT22;41205;44.264;19.884;2023-03-01T13:45:31;179.80;2252.80
55329;DHT22;41205;44.264;19.884;2023-03-01T13:47:55;179.90;2252.80
55329;DHT22;41205;44.264;19.884;2023-03-01T13:50:27;180.00;2252.80
55329;DHT22;41205;44.264;19.884;2023-03-01T13:52:59;180.10;2252.80
55329;DHT22;41205;44.264;19.884;2023-03-01T13:55:40;180.00;2252.80
55329;DHT22;41205;44.264;19.884;2023-03-01T14:00:41;179.70;2252.80
55329;DHT22;41205;44.264;19.884;2023-03-01T14:03:16;179.70;2252.80
55329;DHT22;41205;44.264;19.884;2023-03-01T14:08:25;179.70;2252.80
55329;DHT22;41205;44.264;19.884;2023-03-01T14:19:14;179.60;2252.80
55329;DHT22;41205;44.264;19.884;2023-03-01T14:21:42;179.80;2252.80
55329;DHT22;41205;44.264;19.884;2023-03-01T14:24:18;179.80;2252.80
55329;DHT22;41205;44.264;19.884;2023-03-01T14:26:45;179.80;2252.80
55329;DHT22;41205;44.264;19.884;2023-03-01T14:29:27;179.70;2252.80
55329;DHT22;41205;44.264;19.884;2023-03-01T14:31:53;179.50;2252.80
55329;DHT22;41205;44.264;19.884;2023-03-01T14:34:24;179.60;2252.80
55329;DHT22;41205;44.264;19.884;2023-03-01T14:36:49;179.60;2252.80
55329;DHT22;41205;44.264;19.884;2023-03-01T14:39:22;179.50;2252.80
55329;DHT22;41205;44.264;19.884;2023-03-01T14:41:48;179.30;2252.80
55329;DHT22;41205;44.264;19.884;2023-03-01T14:44:22;179.60;2252.80
55329;DHT22;41205;44.264;19.884;2023-03-01T14:46:53;179.30;2252.80
55329;DHT22;41205;44.264;19.884;2023-03-01T14:49:23;179.50;2252.80
55329;DHT22;41205;44.264;19.884;2023-03-01T14:52:20;179.50;2252.80
55329;DHT22;41205;44.264;19.884;2023-03-01T14:54:49;179.50;2252.80
55329;DHT22;41205;44.264;19.884;2023-03-01T14:59:43;154.40;2252.80
55329;DHT22;41205;44.264;19.884;2023-03-01T15:02:17;154.50;2252.80
55329;DHT22;41205;44.264;19.884;2023-03-01T15:04:54;154.50;2252.80
55329;DHT22;41205;44.264;19.884;2023-03-01T15:07:24;154.40;2252.80
55329;DHT22;41205;44.264;19.884;2023-03-01T15:09:52;154.40;2252.80
55329;DHT22;41205;44.264;19.884;2023-03-01T15:14:54;154.20;2252.80
55329;DHT22;41205;44.264;19.884;2023-03-01T15:17:31;154.20;2252.80
55329;DHT22;41205;44.264;19.884;2023-03-01T15:19:58;154.30;2252.80
55329;DHT22;41205;44.264;19.884;2023-03-01T15:22:26;154.20;2252.80
55329;DHT22;41205;44.264;19.884;2023-03-01T15:24:52;154.40;2252.80
55329;DHT22;41205;44.264;19.884;2023-03-01T15:27:23;179.20;2252.80
55329;DHT22;41205;44.264;19.884;2023-03-01T15:29:52;179.30;2252.80
55329;DHT22;41205;44.264;19.884;2023-03-01T15:34:53;179.50;2252.80
55329;DHT22;41205;44.264;19.884;2023-03-01T15:37:39;179.60;2252.80
55329;DHT22;41205;44.264;19.884;2023-03-01T15:40:28;179.70;2252.80
55329;DHT22;41205;44.264;19.884;2023-03-01T15:43:13;179.60;2252.80
55329;DHT22;41205;44.264;19.884;2023-03-01T15:45:58;179.60;2252.80
55329;DHT22;41205;44.264;19.884;2023-03-01T15:48:24;179.60;2252.80
55329;DHT22;41205;44.264;19.884;2023-03-01T15:50:58;179.70;2252.80
55329;DHT22;41205;44.264;19.884;2023-03-01T15:53:24;179.60;2252.80
55329;DHT22;41205;44.264;19.884;2023-03-01T15:55:52;179.60;2252.80
55329;DHT22;41205;44.264;19.884;2023-03-01T15:58:23;179.70;2252.80
55329;DHT22;41205;44.264;19.884;2023-03-01T16:00:50;179.60;2252.80
55329;DHT22;41205;44.264;19.884;2023-03-01T16:03:21;179.70;2252.80
55329;DHT22;41205;44.264;19.884;2023-03-01T16:05:48;179.60;2252.80
55329;DHT22;41205;44.264;19.884;2023-03-01T16:08:14;179.50;2252.80
55329;DHT22;41205;44.264;19.884;2023-03-01T16:10:41;179.70;2252.80
55329;DHT22;41205;44.264;19.884;2023-03-01T16:13:11;179.60;2252.80
55329;DHT22;41205;44.264;19.884;2023-03-01T16:15:37;179.70;2252.80
55329;DHT22;41205;44.264;19.884;2023-03-01T16:18:04;179.70;2252.80
55329;DHT22;41205;44.264;19.884;2023-03-01T16:20:36;179.50;2252.80
55329;DHT22;41205;44.264;19.884;2023-03-01T16:23:05;179.70;2252.80
55329;DHT22;41205;44.264;19.884;2023-03-01T16:25:31;179.40;2252.80
55329;DHT22;41205;44.264;19.884;2023-03-01T16:27:57;179.30;2252.80
55329;DHT22;41205;44.264;19.884;2023-03-01T16:30:26;179.20;2252.80
55329;DHT22;41205;44.264;19.884;2023-03-01T16:32:52;154.50;2252.80
55329;DHT22;41205;44.264;19.884;2023-03-01T16:35:20;179.40;2252.80
55329;DHT22;41205;44.264;19.884;2023-03-01T16:37:46;179.40;2252.80
55329;DHT22;41205;44.264;19.884;2023-03-01T16:40:23;179.30;2252.80
55329;DHT22;41205;44.264;19.884;2023-03-01T16:42:51;154.50;2252.80
55329;DHT22;41205;44.264;19.884;2023-03-01T16:45:17;154.50;2252.80
55329;DHT22;41205;44.264;19.884;2023-03-01T16:47:43;154.40;2252.80
55329;DHT22;41205;44.264;19.884;2023-03-01T16:50:10;154.20;2252.80
55329;DHT22;41205;44.264;19.884;2023-03-01T16:52:36;154.30;2252.80
55329;DHT22;41205;44.264;19.884;2023-03-01T16:55:04;154.10;2252.80